Slotergracht — PDBP — position and weather

sailwx.info

Track history (hours):
 
Tides and Currents Weather Stations Pressure Air Temp Water Temp Dewpoint Dewpoint Depression Visibility Wind Speed Wind Dir Waves Ship Positions

Slotergracht

Last reported at 2017-Sep-15 06:35 UTC. Time now 2017-Sep-22 06:27 UTC.
Position N 31°02' W 079°59'.

Length 168 m; beam 25 m.

Type: Cargo ship. MMSI: 246456000.

Date/timePositionNaut miles runAvg speedWind from/ knotsBaromVisibWave heightAir tempDewpointWater temp
2017-Sep-15 06:35N 31°02' W 079°59'112.9
2017-Sep-15 06:30N 31°02' W 079°58'3712.0
2017-Sep-15 03:27N 31°29' W 079°28'511.1
2017-Sep-15 03:00N 31°32' W 079°24'611.3
2017-Sep-15 02:30N 31°36' W 079°19'611.6
2017-Sep-15 02:00N 31°40' W 079°14'20413.0
2017-Sep-14 10:17N 34°06' W 076°25'515.8
2017-Sep-14 10:00N 34°10' W 076°22'1615.8
2017-Sep-14 08:59N 34°21' W 076°08'815.8
2017-Sep-14 08:30N 34°27' W 076°02'815.9
2017-Sep-14 08:00N 34°33' W 075°55'1415.8
2017-Sep-14 07:06N 34°43' W 075°43'215.8
2017-Sep-14 06:58N 34°44' W 075°41'3016.5
2017-Sep-14 05:09N 35°06' W 075°16'25215.3
2017-Sep-13 12:39N 38°17' W 071°51'617.7
2017-Sep-13 12:18N 38°22' W 071°45'518.0
2017-Sep-13 12:00N 38°26' W 071°41'918.1
2017-Sep-13 11:30N 38°32' W 071°33'918.1
2017-Sep-13 11:00N 38°38' W 071°24'918.2
2017-Sep-13 10:30N 38°45' W 071°16'918.5
2017-Sep-13 10:01N 38°52' W 071°08'918.4
2017-Sep-13 09:31N 38°58' W 070°60'918.2
2017-Sep-13 09:01N 39°05' W 070°52'918.1
2017-Sep-13 08:30N 39°11' W 070°43'918.0
2017-Sep-13 08:01N 39°17' W 070°35'918.1
2017-Sep-13 07:30N 39°24' W 070°27'918.1
2017-Sep-13 07:00N 39°30' W 070°19'917.9
2017-Sep-13 06:30N 39°37' W 070°10'917.8
2017-Sep-13 06:00N 39°43' W 070°02'918.0
2017-Sep-13 05:30N 39°49' W 069°54'918.4
2017-Sep-13 05:00N 39°56' W 069°46'918.3
2017-Sep-13 04:30N 40°02' W 069°37'918.6
2017-Sep-13 04:01N 40°09' W 069°29'918.8
2017-Sep-13 03:31N 40°16' W 069°21'918.3
2017-Sep-13 03:00N 40°24' W 069°13'1418.5
2017-Sep-13 02:15N 40°37' W 069°07'518.9
2017-Sep-13 02:01N 40°41' W 069°05'917.8
2017-Sep-13 01:30N 40°50' W 069°03'9519.4
2017-Sep-12 20:38N 42°14' W 070°00'318.5
2017-Sep-12 20:28N 42°17' W 070°02'818.3
2017-Sep-12 20:00N 42°25' W 070°01'918.1
2017-Sep-12 19:30N 42°34' W 070°00'918.6
2017-Sep-12 19:00N 42°44' W 069°59'918.4
2017-Sep-12 18:29N 42°53' W 069°58'1518.4
2017-Sep-12 17:41N 43°08' W 069°57'318.7
2017-Sep-12 17:30N 43°11' W 069°58'918.8
2017-Sep-12 17:00N 43°20' W 070°02'919.0
2017-Sep-12 16:30N 43°29' W 070°05'713.5
2017-Sep-12 16:00N 43°35' W 070°10'510.5
2017-Sep-12 15:30N 43°40' W 070°14'2 4.6
2017-Sep-12 14:59N 43°38' W 070°17'0 0.0
2017-Sep-12 14:29N 43°38' W 070°17'0 0.0
2017-Sep-12 13:59N 43°38' W 070°17'0 0.0
2017-Sep-12 13:29N 43°38' W 070°17'0 0.0
2017-Sep-12 12:59N 43°38' W 070°17'0 0.0
2017-Sep-12 12:29N 43°38' W 070°17'0 0.0
2017-Sep-12 11:59N 43°38' W 070°17'0 0.0
2017-Sep-12 11:29N 43°38' W 070°17'0 0.0
2017-Sep-12 10:59N 43°38' W 070°17'0 0.0
2017-Sep-12 10:29N 43°38' W 070°17'0 0.0
2017-Sep-12 09:59N 43°38' W 070°17'0 0.0
2017-Sep-12 09:29N 43°38' W 070°17'0 0.0
2017-Sep-12 08:59N 43°38' W 070°17'0 0.0
2017-Sep-12 08:29N 43°38' W 070°17'0 0.0
2017-Sep-12 07:59N 43°38' W 070°17'0 0.0
2017-Sep-12 07:29N 43°38' W 070°17'0 0.0
2017-Sep-12 06:59N 43°38' W 070°17'0 0.0
2017-Sep-12 06:29N 43°38' W 070°17'0 0.0
2017-Sep-12 05:59N 43°38' W 070°17'0 0.0
2017-Sep-12 05:29N 43°38' W 070°17'0 0.0
2017-Sep-12 04:58N 43°38' W 070°17'0 0.0
2017-Sep-12 04:28N 43°38' W 070°17'0 0.0
2017-Sep-12 03:58N 43°38' W 070°17'0 0.0
2017-Sep-12 03:28N 43°38' W 070°17'0 0.0
2017-Sep-12 02:58N 43°38' W 070°17'0 0.0
2017-Sep-12 02:28N 43°38' W 070°17'0 0.0
2017-Sep-12 01:58N 43°38' W 070°17'0 0.0
2017-Sep-12 01:28N 43°38' W 070°17'0 0.0
2017-Sep-12 00:58N 43°38' W 070°17'0 0.0
2017-Sep-12 00:28N 43°38' W 070°17'0 0.0
2017-Sep-11 23:58N 43°38' W 070°17'0 0.0
2017-Sep-11 23:28N 43°38' W 070°17'0 0.0
2017-Sep-11 22:58N 43°38' W 070°17'0 0.0
2017-Sep-11 22:28N 43°38' W 070°17'0 0.0
2017-Sep-11 21:58N 43°38' W 070°17'0 0.0
2017-Sep-11 21:28N 43°38' W 070°17'0 0.0
2017-Sep-11 20:58N 43°38' W 070°17'0 0.0
2017-Sep-11 20:28N 43°38' W 070°17'0 0.0
2017-Sep-11 19:58N 43°38' W 070°17'0 0.0
2017-Sep-11 19:28N 43°38' W 070°17'0 0.0
2017-Sep-11 18:58N 43°38' W 070°17'0 0.0
2017-Sep-11 18:28N 43°38' W 070°17'0 0.0
2017-Sep-11 17:58N 43°38' W 070°17'0 0.0
2017-Sep-11 17:28N 43°38' W 070°17'0 0.0
2017-Sep-11 16:52N 43°38' W 070°17'0 0.0
2017-Sep-11 16:28N 43°38' W 070°17'0 0.0
2017-Sep-11 15:58N 43°38' W 070°17'0 0.0
2017-Sep-11 15:28N 43°38' W 070°17'0 0.0
2017-Sep-11 14:58N 43°38' W 070°17'0 0.0
2017-Sep-11 14:28N 43°38' W 070°17'0 0.0
2017-Sep-11 13:58N 43°38' W 070°17'0 0.0
2017-Sep-11 13:25N 43°38' W 070°17'0 0.0
2017-Sep-11 13:00N 43°38' W 070°17'2 4.5
2017-Sep-11 12:30N 43°40' W 070°14'4 9.0
2017-Sep-11 12:00N 43°36' W 070°10'611.9
2017-Sep-11 11:30N 43°32' W 070°04'510.2
2017-Sep-11 11:00N 43°31' W 069°57'612.3
2017-Sep-11 10:30N 43°29' W 069°49'612.5
2017-Sep-11 10:00N 43°27' W 069°41'612.5
2017-Sep-11 09:30N 43°26' W 069°33'3012.6
2017-Sep-11 07:05N 43°22' W 068°51'211.2
2017-Sep-11 06:53N 43°22' W 068°48'512.5
2017-Sep-11 06:28N 43°22' W 068°41'  
2017-Sep-08 20:06N 49°10' W 058°24'0 2.4
2017-Sep-08 20:00N 49°10' W 058°23'4 7.4
2017-Sep-08 19:31N 49°08' W 058°19'5 9.6
2017-Sep-08 18:58N 49°05' W 058°12'3 7.6
2017-Sep-08 18:31N 49°03' W 058°08'3 5.1
2017-Sep-08 18:01N 49°01' W 058°06'4 7.1
2017-Sep-08 17:31N 48°59' W 058°01'3 5.9
2017-Sep-08 16:59N 48°57' W 057°57'0 0.0
2017-Sep-08 16:29N 48°57' W 057°57'0 0.0
2017-Sep-08 15:59N 48°57' W 057°57'0 0.0
2017-Sep-08 15:29N 48°57' W 057°57'0 0.0
2017-Sep-08 14:59N 48°57' W 057°57'0 0.0
2017-Sep-08 14:29N 48°57' W 057°57'0 0.0
2017-Sep-08 13:59N 48°57' W 057°57'0 0.0
2017-Sep-08 13:29N 48°57' W 057°57'0 0.0
2017-Sep-08 12:59N 48°57' W 057°57'0 0.0
2017-Sep-08 12:29N 48°57' W 057°57'0 0.0
2017-Sep-08 11:59N 48°57' W 057°57'0 0.0
2017-Sep-08 11:29N 48°57' W 057°57'0 0.0
2017-Sep-08 10:59N 48°57' W 057°57'0 0.0
2017-Sep-08 10:29N 48°57' W 057°57'0 0.0
2017-Sep-08 09:59N 48°57' W 057°57'0 0.0
2017-Sep-08 09:29N 48°57' W 057°57'0 0.0
2017-Sep-08 08:59N 48°57' W 057°57'0 0.0
2017-Sep-08 08:29N 48°57' W 057°57'0 0.0
2017-Sep-08 07:59N 48°57' W 057°57'0 0.0
2017-Sep-08 07:29N 48°57' W 057°57'0 0.0
2017-Sep-08 06:59N 48°57' W 057°57'0 0.0
2017-Sep-08 06:29N 48°57' W 057°57'0 0.0
2017-Sep-08 05:59N 48°57' W 057°57'0 0.0
2017-Sep-08 05:29N 48°57' W 057°57'0 0.0
2017-Sep-08 04:59N 48°57' W 057°57'0 0.0
2017-Sep-08 04:29N 48°57' W 057°57'0 0.0
2017-Sep-08 03:59N 48°57' W 057°57'0 0.0
2017-Sep-08 03:29N 48°57' W 057°57'0 0.0
2017-Sep-08 02:59N 48°57' W 057°57'0 0.0
2017-Sep-08 02:29N 48°57' W 057°57'0 0.0
2017-Sep-08 01:59N 48°57' W 057°57'0 0.0
2017-Sep-08 01:29N 48°57' W 057°57'0 0.0
2017-Sep-08 00:59N 48°57' W 057°57'0 0.0
2017-Sep-08 00:29N 48°57' W 057°57'0 0.0
2017-Sep-07 23:59N 48°57' W 057°57'0 0.0
2017-Sep-07 23:29N 48°57' W 057°57'0 0.0
2017-Sep-07 22:59N 48°57' W 057°57'0 0.0
2017-Sep-07 22:29N 48°57' W 057°57'0 0.0
2017-Sep-07 21:59N 48°57' W 057°57'0 0.0
2017-Sep-07 21:29N 48°57' W 057°57'0 0.0
2017-Sep-07 20:59N 48°57' W 057°57'0 0.0
2017-Sep-07 20:29N 48°57' W 057°57'0 0.0
2017-Sep-07 19:59N 48°57' W 057°57'0 0.0
2017-Sep-07 19:28N 48°57' W 057°57'0 0.0
2017-Sep-07 18:58N 48°57' W 057°57'0 0.0
2017-Sep-07 18:28N 48°57' W 057°57'0 0.0
2017-Sep-07 17:58N 48°57' W 057°57'0 0.0
2017-Sep-07 17:28N 48°57' W 057°57'0 0.0
2017-Sep-07 16:58N 48°57' W 057°57'0 0.0
2017-Sep-07 16:28N 48°57' W 057°57'0 0.0
2017-Sep-07 15:58N 48°57' W 057°57'0 0.0
2017-Sep-07 15:28N 48°57' W 057°57'0 0.0
2017-Sep-07 14:58N 48°57' W 057°57'0 0.0
2017-Sep-07 14:28N 48°57' W 057°57'0 0.0
2017-Sep-07 13:58N 48°57' W 057°57'0 0.0
2017-Sep-07 13:28N 48°57' W 057°57'0 0.0
2017-Sep-07 12:58N 48°57' W 057°57'0 0.0
2017-Sep-07 12:28N 48°57' W 057°57'0 0.0
2017-Sep-07 11:58N 48°57' W 057°57'0 0.0
2017-Sep-07 11:28N 48°57' W 057°57'0 0.0
2017-Sep-07 10:58N 48°57' W 057°57'0 0.0
2017-Sep-07 10:28N 48°57' W 057°57'0 0.0
2017-Sep-07 09:58N 48°57' W 057°57'0 0.0
2017-Sep-07 09:28N 48°57' W 057°57'0 0.0
2017-Sep-07 08:58N 48°57' W 057°57'0 0.0
2017-Sep-07 08:28N 48°57' W 057°57'0 0.0
2017-Sep-07 07:58N 48°57' W 057°57'0 0.0
2017-Sep-07 07:28N 48°57' W 057°57'0 0.0
2017-Sep-07 06:58N 48°57' W 057°57'0 0.0
2017-Sep-07 06:28N 48°57' W 057°57'0 0.0
2017-Sep-07 05:58N 48°57' W 057°57'0 0.0
2017-Sep-07 05:28N 48°57' W 057°57'0 0.0
2017-Sep-07 04:58N 48°57' W 057°57'0 0.0
2017-Sep-07 04:28N 48°57' W 057°57'0 0.0
2017-Sep-07 03:58N 48°57' W 057°57'0 0.0
2017-Sep-07 03:28N 48°57' W 057°57'0 0.0
2017-Sep-07 02:58N 48°57' W 057°57'0 0.0
2017-Sep-07 02:28N 48°57' W 057°57'0 0.0
2017-Sep-07 01:58N 48°57' W 057°57'0 0.0
2017-Sep-07 01:28N 48°57' W 057°57'0 0.0
2017-Sep-07 00:58N 48°57' W 057°57'0 0.0
2017-Sep-07 00:28N 48°57' W 057°57'0 0.0
2017-Sep-06 23:58N 48°57' W 057°57'0 0.0
2017-Sep-06 23:28N 48°57' W 057°57'0 0.0
2017-Sep-06 22:58N 48°57' W 057°57'0 0.0
2017-Sep-06 22:28N 48°57' W 057°57'0 0.0
2017-Sep-06 21:58N 48°57' W 057°57'0 0.0
2017-Sep-06 21:28N 48°57' W 057°57'0 0.0
2017-Sep-06 20:58N 48°57' W 057°57'0 0.1
2017-Sep-06 20:28N 48°57' W 057°57'0 0.1
2017-Sep-06 19:58N 48°57' W 057°57'0 0.0
2017-Sep-06 19:28N 48°57' W 057°57'0 0.0
2017-Sep-06 18:58N 48°57' W 057°57'0 0.0
2017-Sep-06 18:28N 48°57' W 057°57'0 0.0
2017-Sep-06 17:58N 48°57' W 057°57'0 0.0
2017-Sep-06 17:28N 48°57' W 057°57'0 0.0
2017-Sep-06 16:58N 48°57' W 057°57'0 0.0
2017-Sep-06 16:28N 48°57' W 057°57'0 0.0
2017-Sep-06 15:58N 48°57' W 057°57'0 0.0
2017-Sep-06 15:28N 48°57' W 057°57'0 0.0
2017-Sep-06 14:58N 48°57' W 057°57'0 0.0
2017-Sep-06 14:28N 48°57' W 057°57'0 0.0
2017-Sep-06 13:58N 48°57' W 057°57'0 0.0
2017-Sep-06 13:28N 48°57' W 057°57'0 0.0
2017-Sep-06 12:58N 48°57' W 057°57'0 0.0
2017-Sep-06 12:28N 48°57' W 057°57'0 0.0
2017-Sep-06 11:58N 48°57' W 057°57'0 0.0
2017-Sep-06 11:28N 48°57' W 057°57'0 0.0
2017-Sep-06 10:58N 48°57' W 057°57'0 0.0
2017-Sep-06 10:28N 48°57' W 057°57'0 0.0
2017-Sep-06 09:58N 48°57' W 057°57'0 0.0
2017-Sep-06 09:28N 48°57' W 057°57'0 0.0
2017-Sep-06 08:58N 48°57' W 057°57'0 0.0
2017-Sep-06 08:31N 48°57' W 057°57'0 0.0
2017-Sep-06 08:01N 48°57' W 057°57'0 0.0
2017-Sep-06 07:30N 48°57' W 057°57'0 0.0
2017-Sep-06 07:00N 48°57' W 057°57'0 0.0
2017-Sep-06 06:30N 48°57' W 057°57'0 0.0
2017-Sep-06 06:00N 48°57' W 057°57'0 0.0
2017-Sep-06 05:30N 48°57' W 057°57'0 0.0
2017-Sep-06 05:00N 48°57' W 057°57'0 0.0
2017-Sep-06 04:30N 48°57' W 057°57'0 0.0
2017-Sep-06 04:00N 48°57' W 057°57'0 0.0
2017-Sep-06 03:30N 48°57' W 057°57'0 0.0
2017-Sep-06 03:00N 48°57' W 057°57'0 0.0
2017-Sep-06 02:30N 48°57' W 057°57'0 0.0
2017-Sep-06 02:00N 48°57' W 057°57'0 0.0
2017-Sep-06 01:30N 48°57' W 057°57'0 0.0
2017-Sep-06 01:00N 48°57' W 057°57'0 0.0
2017-Sep-06 00:30N 48°57' W 057°57'0 0.0
2017-Sep-06 00:00N 48°57' W 057°57'0 0.0
2017-Sep-05 23:30N 48°57' W 057°57'0 0.0
2017-Sep-05 23:00N 48°57' W 057°57'0 0.0
2017-Sep-05 22:30N 48°57' W 057°57'0 0.0
2017-Sep-05 22:00N 48°57' W 057°57'0 0.0
2017-Sep-05 21:30N 48°57' W 057°57'0 0.0
2017-Sep-05 21:00N 48°57' W 057°57'0 0.0
2017-Sep-05 20:30N 48°57' W 057°57'0 0.0
2017-Sep-05 20:00N 48°57' W 057°57'0 0.0
2017-Sep-05 19:30N 48°57' W 057°57'0 0.0
2017-Sep-05 19:00N 48°57' W 057°57'0 0.0
2017-Sep-05 18:30N 48°57' W 057°57'0 0.0
2017-Sep-05 18:00N 48°57' W 057°57'0 0.0
2017-Sep-05 17:30N 48°57' W 057°57'0 0.0
2017-Sep-05 17:00N 48°57' W 057°57'0 0.0
2017-Sep-05 16:30N 48°57' W 057°57'0 0.0
2017-Sep-05 16:00N 48°57' W 057°57'0 0.0
2017-Sep-05 15:30N 48°57' W 057°57'0 0.0
2017-Sep-05 15:00N 48°57' W 057°57'0 0.0
2017-Sep-05 14:30N 48°57' W 057°57'0 0.0
2017-Sep-05 14:00N 48°57' W 057°57'0 0.0
2017-Sep-05 13:30N 48°57' W 057°57'0 0.0
2017-Sep-05 13:00N 48°57' W 057°57'0 0.0
2017-Sep-05 12:30N 48°57' W 057°57'0 0.0
2017-Sep-05 12:00N 48°57' W 057°57'0 0.0
2017-Sep-05 11:30N 48°57' W 057°57'0 0.0
2017-Sep-05 11:00N 48°57' W 057°57'0 0.0
2017-Sep-05 10:30N 48°57' W 057°57'0 0.0
2017-Sep-05 10:00N 48°57' W 057°57'0 0.0
2017-Sep-05 09:30N 48°57' W 057°57'0 0.0
2017-Sep-05 09:00N 48°57' W 057°57'0 0.0
2017-Sep-05 08:30N 48°57' W 057°57'0 0.0
2017-Sep-05 08:00N 48°57' W 057°57'0 0.0
2017-Sep-05 07:30N 48°57' W 057°57'0 0.0
2017-Sep-05 07:00N 48°57' W 057°57'  
Track history (hours):
 
Tides and Currents Weather Stations Pressure Air Temp Water Temp Dewpoint Dewpoint Depression Visibility Wind Speed Wind Dir Waves Ship Positions

Slotergracht

Last reported at 2017-Sep-15 06:35 UTC. Time now 2017-Sep-22 06:27 UTC.
Position N 31°02' W 079°59'.

Length 168 m; beam 25 m.

Type: Cargo ship. MMSI: 246456000.

Date/timePositionNaut miles runAvg speedWind from/ knotsBaromVisibWave heightAir tempDewpointWater temp
2017-Sep-15 06:35N 31°02' W 079°59'112.9
2017-Sep-15 06:30N 31°02' W 079°58'3712.0
2017-Sep-15 03:27N 31°29' W 079°28'511.1
2017-Sep-15 03:00N 31°32' W 079°24'611.3
2017-Sep-15 02:30N 31°36' W 079°19'611.6
2017-Sep-15 02:00N 31°40' W 079°14'20413.0
2017-Sep-14 10:17N 34°06' W 076°25'515.8
2017-Sep-14 10:00N 34°10' W 076°22'1615.8
2017-Sep-14 08:59N 34°21' W 076°08'815.8
2017-Sep-14 08:30N 34°27' W 076°02'815.9
2017-Sep-14 08:00N 34°33' W 075°55'1415.8
2017-Sep-14 07:06N 34°43' W 075°43'215.8
2017-Sep-14 06:58N 34°44' W 075°41'3016.5
2017-Sep-14 05:09N 35°06' W 075°16'25215.3
2017-Sep-13 12:39N 38°17' W 071°51'617.7
2017-Sep-13 12:18N 38°22' W 071°45'518.0
2017-Sep-13 12:00N 38°26' W 071°41'918.1
2017-Sep-13 11:30N 38°32' W 071°33'918.1
2017-Sep-13 11:00N 38°38' W 071°24'918.2
2017-Sep-13 10:30N 38°45' W 071°16'918.5
2017-Sep-13 10:01N 38°52' W 071°08'918.4
2017-Sep-13 09:31N 38°58' W 070°60'918.2
2017-Sep-13 09:01N 39°05' W 070°52'918.1
2017-Sep-13 08:30N 39°11' W 070°43'918.0
2017-Sep-13 08:01N 39°17' W 070°35'918.1
2017-Sep-13 07:30N 39°24' W 070°27'918.1
2017-Sep-13 07:00N 39°30' W 070°19'917.9
2017-Sep-13 06:30N 39°37' W 070°10'917.8
2017-Sep-13 06:00N 39°43' W 070°02'918.0
2017-Sep-13 05:30N 39°49' W 069°54'918.4
2017-Sep-13 05:00N 39°56' W 069°46'918.3
2017-Sep-13 04:30N 40°02' W 069°37'918.6
2017-Sep-13 04:01N 40°09' W 069°29'918.8
2017-Sep-13 03:31N 40°16' W 069°21'918.3
2017-Sep-13 03:00N 40°24' W 069°13'1418.5
2017-Sep-13 02:15N 40°37' W 069°07'518.9
2017-Sep-13 02:01N 40°41' W 069°05'917.8
2017-Sep-13 01:30N 40°50' W 069°03'9519.4
2017-Sep-12 20:38N 42°14' W 070°00'318.5
2017-Sep-12 20:28N 42°17' W 070°02'818.3
2017-Sep-12 20:00N 42°25' W 070°01'918.1
2017-Sep-12 19:30N 42°34' W 070°00'918.6
2017-Sep-12 19:00N 42°44' W 069°59'918.4
2017-Sep-12 18:29N 42°53' W 069°58'1518.4
2017-Sep-12 17:41N 43°08' W 069°57'318.7
2017-Sep-12 17:30N 43°11' W 069°58'918.8
2017-Sep-12 17:00N 43°20' W 070°02'919.0
2017-Sep-12 16:30N 43°29' W 070°05'713.5
2017-Sep-12 16:00N 43°35' W 070°10'510.5
2017-Sep-12 15:30N 43°40' W 070°14'2 4.6
2017-Sep-12 14:59N 43°38' W 070°17'0 0.0
2017-Sep-12 14:29N 43°38' W 070°17'0 0.0
2017-Sep-12 13:59N 43°38' W 070°17'0 0.0
2017-Sep-12 13:29N 43°38' W 070°17'0 0.0
2017-Sep-12 12:59N 43°38' W 070°17'0 0.0
2017-Sep-12 12:29N 43°38' W 070°17'0 0.0
2017-Sep-12 11:59N 43°38' W 070°17'0 0.0
2017-Sep-12 11:29N 43°38' W 070°17'0 0.0
2017-Sep-12 10:59N 43°38' W 070°17'0 0.0
2017-Sep-12 10:29N 43°38' W 070°17'0 0.0
2017-Sep-12 09:59N 43°38' W 070°17'0 0.0
2017-Sep-12 09:29N 43°38' W 070°17'0 0.0
2017-Sep-12 08:59N 43°38' W 070°17'0 0.0
2017-Sep-12 08:29N 43°38' W 070°17'0 0.0
2017-Sep-12 07:59N 43°38' W 070°17'0 0.0
2017-Sep-12 07:29N 43°38' W 070°17'0 0.0
2017-Sep-12 06:59N 43°38' W 070°17'0 0.0
2017-Sep-12 06:29N 43°38' W 070°17'0 0.0
2017-Sep-12 05:59N 43°38' W 070°17'0 0.0
2017-Sep-12 05:29N 43°38' W 070°17'0 0.0
2017-Sep-12 04:58N 43°38' W 070°17'0 0.0
2017-Sep-12 04:28N 43°38' W 070°17'0 0.0
2017-Sep-12 03:58N 43°38' W 070°17'0 0.0
2017-Sep-12 03:28N 43°38' W 070°17'0 0.0
2017-Sep-12 02:58N 43°38' W 070°17'0 0.0
2017-Sep-12 02:28N 43°38' W 070°17'0 0.0
2017-Sep-12 01:58N 43°38' W 070°17'0 0.0
2017-Sep-12 01:28N 43°38' W 070°17'0 0.0
2017-Sep-12 00:58N 43°38' W 070°17'0 0.0
2017-Sep-12 00:28N 43°38' W 070°17'0 0.0
2017-Sep-11 23:58N 43°38' W 070°17'0 0.0
2017-Sep-11 23:28N 43°38' W 070°17'0 0.0
2017-Sep-11 22:58N 43°38' W 070°17'0 0.0
2017-Sep-11 22:28N 43°38' W 070°17'0 0.0
2017-Sep-11 21:58N 43°38' W 070°17'0 0.0
2017-Sep-11 21:28N 43°38' W 070°17'0 0.0
2017-Sep-11 20:58N 43°38' W 070°17'0 0.0
2017-Sep-11 20:28N 43°38' W 070°17'0 0.0
2017-Sep-11 19:58N 43°38' W 070°17'0 0.0
2017-Sep-11 19:28N 43°38' W 070°17'0 0.0
2017-Sep-11 18:58N 43°38' W 070°17'0 0.0
2017-Sep-11 18:28N 43°38' W 070°17'0 0.0
2017-Sep-11 17:58N 43°38' W 070°17'0 0.0
2017-Sep-11 17:28N 43°38' W 070°17'0 0.0
2017-Sep-11 16:52N 43°38' W 070°17'0 0.0
2017-Sep-11 16:28N 43°38' W 070°17'0 0.0
2017-Sep-11 15:58N 43°38' W 070°17'0 0.0
2017-Sep-11 15:28N 43°38' W 070°17'0 0.0
2017-Sep-11 14:58N 43°38' W 070°17'0 0.0
2017-Sep-11 14:28N 43°38' W 070°17'0 0.0
2017-Sep-11 13:58N 43°38' W 070°17'0 0.0
2017-Sep-11 13:25N 43°38' W 070°17'0 0.0
2017-Sep-11 13:00N 43°38' W 070°17'2 4.5
2017-Sep-11 12:30N 43°40' W 070°14'4 9.0
2017-Sep-11 12:00N 43°36' W 070°10'611.9
2017-Sep-11 11:30N 43°32' W 070°04'510.2
2017-Sep-11 11:00N 43°31' W 069°57'612.3
2017-Sep-11 10:30N 43°29' W 069°49'612.5
2017-Sep-11 10:00N 43°27' W 069°41'612.5
2017-Sep-11 09:30N 43°26' W 069°33'3012.6
2017-Sep-11 07:05N 43°22' W 068°51'211.2
2017-Sep-11 06:53N 43°22' W 068°48'512.5
2017-Sep-11 06:28N 43°22' W 068°41'  
2017-Sep-08 20:06N 49°10' W 058°24'0 2.4
2017-Sep-08 20:00N 49°10' W 058°23'4 7.4
2017-Sep-08 19:31N 49°08' W 058°19'5 9.6
2017-Sep-08 18:58N 49°05' W 058°12'3 7.6
2017-Sep-08 18:31N 49°03' W 058°08'3 5.1
2017-Sep-08 18:01N 49°01' W 058°06'4 7.1
2017-Sep-08 17:31N 48°59' W 058°01'3 5.9
2017-Sep-08 16:59N 48°57' W 057°57'0 0.0
2017-Sep-08 16:29N 48°57' W 057°57'0 0.0
2017-Sep-08 15:59N 48°57' W 057°57'0 0.0
2017-Sep-08 15:29N 48°57' W 057°57'0 0.0
2017-Sep-08 14:59N 48°57' W 057°57'0 0.0
2017-Sep-08 14:29N 48°57' W 057°57'0 0.0
2017-Sep-08 13:59N 48°57' W 057°57'0 0.0
2017-Sep-08 13:29N 48°57' W 057°57'0 0.0
2017-Sep-08 12:59N 48°57' W 057°57'0 0.0
2017-Sep-08 12:29N 48°57' W 057°57'0 0.0
2017-Sep-08 11:59N 48°57' W 057°57'0 0.0
2017-Sep-08 11:29N 48°57' W 057°57'0 0.0
2017-Sep-08 10:59N 48°57' W 057°57'0 0.0
2017-Sep-08 10:29N 48°57' W 057°57'0 0.0
2017-Sep-08 09:59N 48°57' W 057°57'0 0.0
2017-Sep-08 09:29N 48°57' W 057°57'0 0.0
2017-Sep-08 08:59N 48°57' W 057°57'0 0.0
2017-Sep-08 08:29N 48°57' W 057°57'0 0.0
2017-Sep-08 07:59N 48°57' W 057°57'0 0.0
2017-Sep-08 07:29N 48°57' W 057°57'0 0.0
2017-Sep-08 06:59N 48°57' W 057°57'0 0.0
2017-Sep-08 06:29N 48°57' W 057°57'0 0.0
2017-Sep-08 05:59N 48°57' W 057°57'0 0.0
2017-Sep-08 05:29N 48°57' W 057°57'0 0.0
2017-Sep-08 04:59N 48°57' W 057°57'0 0.0
2017-Sep-08 04:29N 48°57' W 057°57'0 0.0
2017-Sep-08 03:59N 48°57' W 057°57'0 0.0
2017-Sep-08 03:29N 48°57' W 057°57'0 0.0
2017-Sep-08 02:59N 48°57' W 057°57'0 0.0
2017-Sep-08 02:29N 48°57' W 057°57'0 0.0
2017-Sep-08 01:59N 48°57' W 057°57'0 0.0
2017-Sep-08 01:29N 48°57' W 057°57'0 0.0
2017-Sep-08 00:59N 48°57' W 057°57'0 0.0
2017-Sep-08 00:29N 48°57' W 057°57'0 0.0
2017-Sep-07 23:59N 48°57' W 057°57'0 0.0
2017-Sep-07 23:29N 48°57' W 057°57'0 0.0
2017-Sep-07 22:59N 48°57' W 057°57'0 0.0
2017-Sep-07 22:29N 48°57' W 057°57'0 0.0
2017-Sep-07 21:59N 48°57' W 057°57'0 0.0
2017-Sep-07 21:29N 48°57' W 057°57'0 0.0
2017-Sep-07 20:59N 48°57' W 057°57'0 0.0
2017-Sep-07 20:29N 48°57' W 057°57'0 0.0
2017-Sep-07 19:59N 48°57' W 057°57'0 0.0
2017-Sep-07 19:28N 48°57' W 057°57'0 0.0
2017-Sep-07 18:58N 48°57' W 057°57'0 0.0
2017-Sep-07 18:28N 48°57' W 057°57'0 0.0
2017-Sep-07 17:58N 48°57' W 057°57'0 0.0
2017-Sep-07 17:28N 48°57' W 057°57'0 0.0
2017-Sep-07 16:58N 48°57' W 057°57'0 0.0
2017-Sep-07 16:28N 48°57' W 057°57'0 0.0
2017-Sep-07 15:58N 48°57' W 057°57'0 0.0
2017-Sep-07 15:28N 48°57' W 057°57'0 0.0
2017-Sep-07 14:58N 48°57' W 057°57'0 0.0
2017-Sep-07 14:28N 48°57' W 057°57'0 0.0
2017-Sep-07 13:58N 48°57' W 057°57'0 0.0
2017-Sep-07 13:28N 48°57' W 057°57'0 0.0
2017-Sep-07 12:58N 48°57' W 057°57'0 0.0
2017-Sep-07 12:28N 48°57' W 057°57'0 0.0
2017-Sep-07 11:58N 48°57' W 057°57'0 0.0
2017-Sep-07 11:28N 48°57' W 057°57'0 0.0
2017-Sep-07 10:58N 48°57' W 057°57'0 0.0
2017-Sep-07 10:28N 48°57' W 057°57'0 0.0
2017-Sep-07 09:58N 48°57' W 057°57'0 0.0
2017-Sep-07 09:28N 48°57' W 057°57'0 0.0
2017-Sep-07 08:58N 48°57' W 057°57'0 0.0
2017-Sep-07 08:28N 48°57' W 057°57'0 0.0
2017-Sep-07 07:58N 48°57' W 057°57'0 0.0
2017-Sep-07 07:28N 48°57' W 057°57'0 0.0
2017-Sep-07 06:58N 48°57' W 057°57'0 0.0
2017-Sep-07 06:28N 48°57' W 057°57'0 0.0
2017-Sep-07 05:58N 48°57' W 057°57'0 0.0
2017-Sep-07 05:28N 48°57' W 057°57'0 0.0
2017-Sep-07 04:58N 48°57' W 057°57'0 0.0
2017-Sep-07 04:28N 48°57' W 057°57'0 0.0
2017-Sep-07 03:58N 48°57' W 057°57'0 0.0
2017-Sep-07 03:28N 48°57' W 057°57'0 0.0
2017-Sep-07 02:58N 48°57' W 057°57'0 0.0
2017-Sep-07 02:28N 48°57' W 057°57'0 0.0
2017-Sep-07 01:58N 48°57' W 057°57'0 0.0
2017-Sep-07 01:28N 48°57' W 057°57'0 0.0
2017-Sep-07 00:58N 48°57' W 057°57'0 0.0
2017-Sep-07 00:28N 48°57' W 057°57'0 0.0
2017-Sep-06 23:58N 48°57' W 057°57'0 0.0
2017-Sep-06 23:28N 48°57' W 057°57'0 0.0
2017-Sep-06 22:58N 48°57' W 057°57'0 0.0
2017-Sep-06 22:28N 48°57' W 057°57'0 0.0
2017-Sep-06 21:58N 48°57' W 057°57'0 0.0
2017-Sep-06 21:28N 48°57' W 057°57'0 0.0
2017-Sep-06 20:58N 48°57' W 057°57'0 0.1
2017-Sep-06 20:28N 48°57' W 057°57'0 0.1
2017-Sep-06 19:58N 48°57' W 057°57'0 0.0
2017-Sep-06 19:28N 48°57' W 057°57'0 0.0
2017-Sep-06 18:58N 48°57' W 057°57'0 0.0
2017-Sep-06 18:28N 48°57' W 057°57'0 0.0
2017-Sep-06 17:58N 48°57' W 057°57'0 0.0
2017-Sep-06 17:28N 48°57' W 057°57'0 0.0
2017-Sep-06 16:58N 48°57' W 057°57'0 0.0
2017-Sep-06 16:28N 48°57' W 057°57'0 0.0
2017-Sep-06 15:58N 48°57' W 057°57'0 0.0
2017-Sep-06 15:28N 48°57' W 057°57'0 0.0
2017-Sep-06 14:58N 48°57' W 057°57'0 0.0
2017-Sep-06 14:28N 48°57' W 057°57'0 0.0
2017-Sep-06 13:58N 48°57' W 057°57'0 0.0
2017-Sep-06 13:28N 48°57' W 057°57'0 0.0
2017-Sep-06 12:58N 48°57' W 057°57'0 0.0
2017-Sep-06 12:28N 48°57' W 057°57'0 0.0
2017-Sep-06 11:58N 48°57' W 057°57'0 0.0
2017-Sep-06 11:28N 48°57' W 057°57'0 0.0
2017-Sep-06 10:58N 48°57' W 057°57'0 0.0
2017-Sep-06 10:28N 48°57' W 057°57'0 0.0
2017-Sep-06 09:58N 48°57' W 057°57'0 0.0
2017-Sep-06 09:28N 48°57' W 057°57'0 0.0
2017-Sep-06 08:58N 48°57' W 057°57'0 0.0
2017-Sep-06 08:31N 48°57' W 057°57'0 0.0
2017-Sep-06 08:01N 48°57' W 057°57'0 0.0
2017-Sep-06 07:30N 48°57' W 057°57'0 0.0
2017-Sep-06 07:00N 48°57' W 057°57'0 0.0
2017-Sep-06 06:30N 48°57' W 057°57'0 0.0
2017-Sep-06 06:00N 48°57' W 057°57'0 0.0
2017-Sep-06 05:30N 48°57' W 057°57'0 0.0
2017-Sep-06 05:00N 48°57' W 057°57'0 0.0
2017-Sep-06 04:30N 48°57' W 057°57'0 0.0
2017-Sep-06 04:00N 48°57' W 057°57'0 0.0
2017-Sep-06 03:30N 48°57' W 057°57'0 0.0
2017-Sep-06 03:00N 48°57' W 057°57'0 0.0
2017-Sep-06 02:30N 48°57' W 057°57'0 0.0
2017-Sep-06 02:00N 48°57' W 057°57'0 0.0
2017-Sep-06 01:30N 48°57' W 057°57'0 0.0
2017-Sep-06 01:00N 48°57' W 057°57'0 0.0
2017-Sep-06 00:30N 48°57' W 057°57'0 0.0
2017-Sep-06 00:00N 48°57' W 057°57'0 0.0
2017-Sep-05 23:30N 48°57' W 057°57'0 0.0
2017-Sep-05 23:00N 48°57' W 057°57'0 0.0
2017-Sep-05 22:30N 48°57' W 057°57'0 0.0
2017-Sep-05 22:00N 48°57' W 057°57'0 0.0
2017-Sep-05 21:30N 48°57' W 057°57'0 0.0
2017-Sep-05 21:00N 48°57' W 057°57'0 0.0
2017-Sep-05 20:30N 48°57' W 057°57'0 0.0
2017-Sep-05 20:00N 48°57' W 057°57'0 0.0
2017-Sep-05 19:30N 48°57' W 057°57'0 0.0
2017-Sep-05 19:00N 48°57' W 057°57'0 0.0
2017-Sep-05 18:30N 48°57' W 057°57'0 0.0
2017-Sep-05 18:00N 48°57' W 057°57'0 0.0
2017-Sep-05 17:30N 48°57' W 057°57'0 0.0
2017-Sep-05 17:00N 48°57' W 057°57'0 0.0
2017-Sep-05 16:30N 48°57' W 057°57'0 0.0
2017-Sep-05 16:00N 48°57' W 057°57'0 0.0
2017-Sep-05 15:30N 48°57' W 057°57'0 0.0
2017-Sep-05 15:00N 48°57' W 057°57'0 0.0
2017-Sep-05 14:30N 48°57' W 057°57'0 0.0
2017-Sep-05 14:00N 48°57' W 057°57'0 0.0
2017-Sep-05 13:30N 48°57' W 057°57'0 0.0
2017-Sep-05 13:00N 48°57' W 057°57'0 0.0
2017-Sep-05 12:30N 48°57' W 057°57'0 0.0
2017-Sep-05 12:00N 48°57' W 057°57'0 0.0
2017-Sep-05 11:30N 48°57' W 057°57'0 0.0
2017-Sep-05 11:00N 48°57' W 057°57'0 0.0
2017-Sep-05 10:30N 48°57' W 057°57'0 0.0
2017-Sep-05 10:00N 48°57' W 057°57'0 0.0
2017-Sep-05 09:30N 48°57' W 057°57'0 0.0
2017-Sep-05 09:00N 48°57' W 057°57'0 0.0
2017-Sep-05 08:30N 48°57' W 057°57'0 0.0
2017-Sep-05 08:00N 48°57' W 057°57'0 0.0
2017-Sep-05 07:30N 48°57' W 057°57'0 0.0
2017-Sep-05 07:00N 48°57' W 057°57'  

Dump ship's entire track history